AIRPORT_AIRPORT_METAR
METAR FOR KNOW
ADDS - METARS form results

(2020 UTC 25 October 2020)
Data provider http://aviationweather.gov/metar/data/
 
METAR text: KNOW 252015Z AUTO 05005KT 10SM CLR 08/M01 A3060 RMK AO2 T00751014
Conditions at: KNOW (PORT ANGELES CGA, WA, US) observed 2015 UTC 25 October 2020
Temperature: 7.5°C (46°F)
Dewpoint: -1.4°C (29°F) [RH = 53%]
Pressure (altimeter): 30.60 inches Hg (1036.3 mb)
Winds: from the NE (50 degrees) at 6 MPH (5 knots; 2.6 m/s)
Visibility: 10 or more miles (16+ km)
Ceiling: at least 12,000 feet AGL
Clouds: sky clear below 12,000 feet AGL
Weather: automated observation with no human augmentation;
there may or may not be significant weather present at this time

METAR text: KNOW 251955Z AUTO 05005KT 10SM CLR 07/M01 A3060 RMK AO2 T00671015
Conditions at: KNOW (PORT ANGELES CGA, WA, US) observed 1955 UTC 25 October 2020
Temperature: 6.7°C (44°F)
Dewpoint: -1.5°C (29°F) [RH = 56%]
Pressure (altimeter): 30.60 inches Hg (1036.3 mb)
Winds: from the NE (50 degrees) at 6 MPH (5 knots; 2.6 m/s)
Visibility: 10 or more miles (16+ km)
Ceiling: at least 12,000 feet AGL
Clouds: sky clear below 12,000 feet AGL
Weather: automated observation with no human augmentation;
there may or may not be significant weather present at this time

METAR text: KNOW 251935Z AUTO 03005KT 10SM CLR 07/M01 A3061 RMK AO2 T00691012
Conditions at: KNOW (PORT ANGELES CGA, WA, US) observed 1935 UTC 25 October 2020
Temperature: 6.9°C (44°F)
Dewpoint: -1.2°C (30°F) [RH = 56%]
Pressure (altimeter): 30.61 inches Hg (1036.7 mb)
Winds: from the NNE (30 degrees) at 6 MPH (5 knots; 2.6 m/s)
Visibility: 10 or more miles (16+ km)
Ceiling: at least 12,000 feet AGL
Clouds: sky clear below 12,000 feet AGL
Weather: automated observation with no human augmentation;
there may or may not be significant weather present at this time

 AIRPORT_AIRPORT_MAP

 AIRPORT_RUNWAY_INFO
AIRPORT_RUNWAY 07 AIRPORT_RUNWAY_LENGTH 4500 ft AIRPORT_RUNWAY_WIDTH 150 ft
AIRPORT_RUNWAY_ELEVATION 9 ft AIRPORT_RUNWAY_THRESHOLD 0 ft AIRPORT_RUNWAY_HEADING 94
AIRPORT_RUNWAY 25 AIRPORT_RUNWAY_LENGTH 4500 ft AIRPORT_RUNWAY_WIDTH 150 ft
AIRPORT_RUNWAY_ELEVATION 8 ft AIRPORT_RUNWAY_THRESHOLD 0 ft AIRPORT_RUNWAY_HEADING 274

 AIRPORT_AIRPORT_FREQUENCIES
AIRPORT_AIRPORT_NAVAIDS_TYPE A/D AIRPORT_AIRPORT_NAVAIDS_NAME WHIDBEY AP AIRPORT_AIRPORT_NAVAIDS_FREQ 118.2 MHZ
AIRPORT_AIRPORT_NAVAIDS_TYPE CTAF AIRPORT_AIRPORT_NAVAIDS_NAME CTAF AIRPORT_AIRPORT_NAVAIDS_FREQ 123 MHZ
AIRPORT_AIRPORT_NAVAIDS_TYPE MISC AIRPORT_AIRPORT_NAVAIDS_NAME PORT ANGEL AIRPORT_AIRPORT_NAVAIDS_FREQ 127.7 MHZ
AIRPORT_AIRPORT_NAVAIDS_TYPE MISC AIRPORT_AIRPORT_NAVAIDS_NAME PORT ANGEL AIRPORT_AIRPORT_NAVAIDS_FREQ 569.2 MHZ
AIRPORT_AIRPORT_NAVAIDS_TYPE RDO AIRPORT_AIRPORT_NAVAIDS_NAME SEATTLE RD AIRPORT_AIRPORT_NAVAIDS_FREQ 122.6 MHZ

 AIRPORT_AIRPORT_NAVAIDS



Copyright © 2005-2020 - Virtuel Air Alsace - Tous droits réservés